JBU1084 KMEM-KORL
Flight info
| Callsign | JBU1084 |
|---|---|
| Flight time | N/A |
| Altitude | 35000 |
| Route | PIEPE6 IBUFY MERDN DEFUN CABLO MJKAL JAFAR3 |
| Aircraft | A321/M-SDE3FGHIRWY/LB1 |
Departure
| Time | 2026-05-05 01:09 |
|---|---|
| Airport | Memphis International Airport (KMEM) |
Arrival
| Time | N/A |
|---|---|
| Airport | Orlando Executive Airport (KORL) |
| Time | Latitude | Longitude | Altitude | Speed | Heading |
|---|---|---|---|---|---|
| 2026-05-05 00:28 | 35.04064 | -89.98046 | 331 ft | 0 kts | 51° |
| 2026-05-05 00:54 | 35.04064 | -89.98047 | 330 ft | 1 kts | 51° |
| 2026-05-05 00:54 | 35.04050 | -89.98068 | 326 ft | 4 kts | 51° |
| 2026-05-05 00:55 | 35.04037 | -89.98087 | 326 ft | 4 kts | 26° |
| 2026-05-05 00:55 | 35.04019 | -89.98085 | 326 ft | 4 kts | 314° |
| 2026-05-05 00:55 | 35.04004 | -89.98065 | 327 ft | 3 kts | 313° |
| 2026-05-05 00:55 | 35.03988 | -89.98040 | 327 ft | 4 kts | 294° |
| 2026-05-05 00:56 | 35.03981 | -89.98009 | 326 ft | 4 kts | 272° |
| 2026-05-05 00:56 | 35.03981 | -89.97995 | 326 ft | 0 kts | 268° |
| 2026-05-05 01:01 | 35.03981 | -89.98013 | 326 ft | 3 kts | 268° |
| 2026-05-05 01:01 | 35.03980 | -89.98029 | 327 ft | 1 kts | 268° |
| 2026-05-05 01:02 | 35.03979 | -89.98031 | 326 ft | 1 kts | 258° |
| 2026-05-05 01:02 | 35.03956 | -89.98038 | 330 ft | 5 kts | 182° |
| 2026-05-05 01:02 | 35.03917 | -89.98034 | 328 ft | 6 kts | 174° |
| 2026-05-05 01:03 | 35.03888 | -89.98000 | 329 ft | 6 kts | 110° |
| 2026-05-05 01:03 | 35.03888 | -89.97944 | 329 ft | 7 kts | 88° |
| 2026-05-05 01:03 | 35.03889 | -89.97881 | 328 ft | 8 kts | 89° |
| 2026-05-05 01:03 | 35.03890 | -89.97809 | 330 ft | 9 kts | 89° |
| 2026-05-05 01:04 | 35.03920 | -89.97744 | 327 ft | 10 kts | 21° |
| 2026-05-05 01:04 | 35.04066 | -89.97738 | 327 ft | 11 kts | 356° |
| 2026-05-05 01:04 | 35.04142 | -89.97743 | 326 ft | 11 kts | 357° |
| 2026-05-05 01:05 | 35.04221 | -89.97744 | 327 ft | 12 kts | 0° |
| 2026-05-05 01:05 | 35.04307 | -89.97744 | 326 ft | 13 kts | 360° |
| 2026-05-05 01:05 | 35.04398 | -89.97744 | 325 ft | 13 kts | 359° |
| 2026-05-05 01:05 | 35.04493 | -89.97747 | 329 ft | 14 kts | 358° |
| 2026-05-05 01:06 | 35.04592 | -89.97751 | 326 ft | 15 kts | 358° |
| 2026-05-05 01:06 | 35.04696 | -89.97754 | 326 ft | 15 kts | 0° |
| 2026-05-05 01:06 | 35.04806 | -89.97755 | 326 ft | 16 kts | 359° |
| 2026-05-05 01:06 | 35.04918 | -89.97756 | 324 ft | 16 kts | 359° |
| 2026-05-05 01:07 | 35.05033 | -89.97758 | 323 ft | 17 kts | 359° |
| 2026-05-05 01:07 | 35.05149 | -89.97761 | 326 ft | 17 kts | 359° |
| 2026-05-05 01:07 | 35.05267 | -89.97763 | 326 ft | 17 kts | 359° |
| 2026-05-05 01:07 | 35.05382 | -89.97780 | 327 ft | 16 kts | 351° |
| 2026-05-05 01:08 | 35.05436 | -89.97750 | 328 ft | 1 kts | 63° |
| 2026-05-05 01:08 | 35.05446 | -89.97688 | 323 ft | 15 kts | 92° |
| 2026-05-05 01:08 | 35.05389 | -89.97619 | 322 ft | 0 kts | 175° |
| 2026-05-05 01:09 | 35.05318 | -89.97615 | 325 ft | 39 kts | 179° |
| 2026-05-05 01:09 | 35.04808 | -89.97607 | 322 ft | 105 kts | 179° |
| 2026-05-05 01:09 | 35.03883 | -89.97591 | 328 ft | 158 kts | 180° |
| 2026-05-05 01:09 | 35.02804 | -89.97591 | 1077 ft | 145 kts | 180° |
| 2026-05-05 01:10 | 35.01807 | -89.97579 | 1802 ft | 146 kts | 182° |
| 2026-05-05 01:10 | 35.00764 | -89.97558 | 2261 ft | 151 kts | 181° |
| 2026-05-05 01:10 | 34.99682 | -89.97534 | 2689 ft | 156 kts | 183° |
| 2026-05-05 01:10 | 34.98611 | -89.97513 | 3138 ft | 156 kts | 182° |
| 2026-05-05 01:11 | 34.97515 | -89.97483 | 3640 ft | 155 kts | 181° |
| 2026-05-05 01:11 | 34.96420 | -89.97452 | 4059 ft | 162 kts | 182° |
| 2026-05-05 01:11 | 34.95290 | -89.97422 | 4488 ft | 167 kts | 182° |
| 2026-05-05 01:11 | 34.94110 | -89.97390 | 4918 ft | 172 kts | 182° |
| 2026-05-05 01:12 | 34.92893 | -89.97360 | 5348 ft | 178 kts | 183° |
| 2026-05-05 01:12 | 34.91636 | -89.97333 | 5781 ft | 184 kts | 184° |
| 2026-05-05 01:12 | 34.90310 | -89.97306 | 6060 ft | 198 kts | 184° |
| 2026-05-05 01:12 | 34.88885 | -89.97282 | 6327 ft | 211 kts | 183° |
| 2026-05-05 01:13 | 34.87377 | -89.97297 | 6573 ft | 222 kts | 188° |
| 2026-05-05 01:13 | 34.85781 | -89.97463 | 6782 ft | 240 kts | 188° |
| 2026-05-05 01:13 | 34.84054 | -89.97637 | 7031 ft | 259 kts | 188° |
| 2026-05-05 01:13 | 34.82220 | -89.97819 | 7286 ft | 268 kts | 188° |
| 2026-05-05 01:14 | 34.80357 | -89.98001 | 7646 ft | 267 kts | 188° |
| 2026-05-05 01:14 | 34.78490 | -89.98181 | 8258 ft | 271 kts | 188° |
| 2026-05-05 01:14 | 34.76595 | -89.98368 | 8870 ft | 275 kts | 188° |
| 2026-05-05 01:14 | 34.74684 | -89.98559 | 9531 ft | 277 kts | 188° |
| 2026-05-05 01:15 | 34.72760 | -89.98752 | 10172 ft | 278 kts | 188° |
| 2026-05-05 01:15 | 34.70817 | -89.98951 | 10684 ft | 283 kts | 190° |
| 2026-05-05 01:15 | 34.68887 | -89.99449 | 11164 ft | 285 kts | 202° |
| 2026-05-05 01:15 | 34.67009 | -90.00283 | 11654 ft | 290 kts | 204° |
| 2026-05-05 01:16 | 34.65094 | -90.01140 | 12153 ft | 296 kts | 204° |
| 2026-05-05 01:16 | 34.63145 | -90.02012 | 12698 ft | 300 kts | 204° |
| 2026-05-05 01:16 | 34.61174 | -90.02894 | 13266 ft | 304 kts | 204° |
| 2026-05-05 01:16 | 34.59181 | -90.03782 | 13830 ft | 307 kts | 204° |
| 2026-05-05 01:17 | 34.57169 | -90.04674 | 14336 ft | 309 kts | 204° |
| 2026-05-05 01:17 | 34.55139 | -90.05568 | 14872 ft | 311 kts | 204° |
| 2026-05-05 01:17 | 34.53095 | -90.06469 | 15398 ft | 313 kts | 205° |
| 2026-05-05 01:17 | 34.51044 | -90.07375 | 15941 ft | 314 kts | 205° |
| 2026-05-05 01:18 | 34.48990 | -90.08282 | 16491 ft | 315 kts | 205° |
| 2026-05-05 01:18 | 34.46902 | -90.09118 | 17038 ft | 317 kts | 199° |
| 2026-05-05 01:18 | 34.44715 | -90.09586 | 17592 ft | 322 kts | 191° |
| 2026-05-05 01:18 | 34.42484 | -90.09886 | 18064 ft | 324 kts | 191° |
| 2026-05-05 01:19 | 34.40232 | -90.10193 | 18494 ft | 327 kts | 191° |
| 2026-05-05 01:19 | 34.37965 | -90.10503 | 18919 ft | 329 kts | 192° |
| 2026-05-05 01:19 | 34.35685 | -90.10817 | 19342 ft | 330 kts | 192° |
| 2026-05-05 01:19 | 34.33398 | -90.11131 | 19777 ft | 332 kts | 192° |
| 2026-05-05 01:20 | 34.31089 | -90.11447 | 20137 ft | 336 kts | 192° |
| 2026-05-05 01:20 | 34.28751 | -90.11765 | 20468 ft | 341 kts | 192° |
| 2026-05-05 01:20 | 34.26377 | -90.12089 | 20760 ft | 347 kts | 192° |
| 2026-05-05 01:20 | 34.23950 | -90.12424 | 21015 ft | 354 kts | 192° |
| 2026-05-05 01:21 | 34.21479 | -90.12768 | 21258 ft | 361 kts | 192° |
| 2026-05-05 01:21 | 34.18957 | -90.13117 | 21511 ft | 368 kts | 192° |
| 2026-05-05 01:21 | 34.16385 | -90.13465 | 21770 ft | 376 kts | 191° |
| 2026-05-05 01:21 | 34.13727 | -90.13561 | 22031 ft | 388 kts | 183° |
| 2026-05-05 01:22 | 34.11002 | -90.13235 | 22303 ft | 399 kts | 175° |
| 2026-05-05 01:22 | 34.08261 | -90.12465 | 22567 ft | 410 kts | 167° |
| 2026-05-05 01:22 | 34.05558 | -90.11232 | 22835 ft | 421 kts | 159° |
| 2026-05-05 01:22 | 34.02957 | -90.09520 | 23105 ft | 431 kts | 150° |
| 2026-05-05 01:23 | 34.00445 | -90.07493 | 23382 ft | 438 kts | 149° |
| 2026-05-05 01:23 | 33.97893 | -90.05442 | 23630 ft | 444 kts | 149° |
| 2026-05-05 01:23 | 33.95300 | -90.03374 | 23836 ft | 449 kts | 150° |
| 2026-05-05 01:23 | 33.92675 | -90.01291 | 24059 ft | 455 kts | 150° |
| 2026-05-05 01:24 | 33.90020 | -89.99184 | 24289 ft | 460 kts | 150° |
| 2026-05-05 01:24 | 33.87335 | -89.97050 | 24531 ft | 464 kts | 150° |
| 2026-05-05 01:24 | 33.84627 | -89.94895 | 24764 ft | 469 kts | 150° |
| 2026-05-05 01:24 | 33.81894 | -89.92720 | 24998 ft | 473 kts | 150° |
| 2026-05-05 01:25 | 33.79139 | -89.90527 | 25239 ft | 477 kts | 150° |
| 2026-05-05 01:25 | 33.76357 | -89.88315 | 25479 ft | 481 kts | 150° |
| 2026-05-05 01:25 | 33.73557 | -89.86091 | 25718 ft | 485 kts | 150° |
| 2026-05-05 01:25 | 33.70732 | -89.83853 | 25962 ft | 488 kts | 150° |
| 2026-05-05 01:26 | 33.67887 | -89.81603 | 26192 ft | 492 kts | 150° |
| 2026-05-05 01:26 | 33.65025 | -89.79339 | 26432 ft | 495 kts | 150° |
| 2026-05-05 01:26 | 33.62141 | -89.77053 | 26671 ft | 498 kts | 150° |
| 2026-05-05 01:26 | 33.59246 | -89.74759 | 26926 ft | 501 kts | 150° |
| 2026-05-05 01:27 | 33.56330 | -89.72450 | 27178 ft | 503 kts | 151° |
| 2026-05-05 01:27 | 33.53398 | -89.70134 | 27431 ft | 506 kts | 151° |
| 2026-05-05 01:27 | 33.50448 | -89.67811 | 27692 ft | 509 kts | 151° |
| 2026-05-05 01:27 | 33.47484 | -89.65479 | 27946 ft | 511 kts | 151° |
| 2026-05-05 01:28 | 33.44505 | -89.63137 | 28205 ft | 513 kts | 151° |
| 2026-05-05 01:28 | 33.41514 | -89.60788 | 28468 ft | 515 kts | 151° |
| 2026-05-05 01:28 | 33.38516 | -89.58431 | 28736 ft | 517 kts | 151° |
| 2026-05-05 01:28 | 33.35502 | -89.56061 | 28976 ft | 519 kts | 151° |
| 2026-05-05 01:29 | 33.32482 | -89.53688 | 29252 ft | 520 kts | 151° |
| 2026-05-05 01:29 | 33.29454 | -89.51310 | 29525 ft | 521 kts | 151° |
| 2026-05-05 01:29 | 33.26417 | -89.48930 | 29791 ft | 523 kts | 152° |
| 2026-05-05 01:29 | 33.23374 | -89.46548 | 30033 ft | 524 kts | 152° |
| 2026-05-05 01:30 | 33.20320 | -89.44158 | 30274 ft | 525 kts | 152° |
| 2026-05-05 01:30 | 33.17266 | -89.41773 | 30517 ft | 526 kts | 152° |
| 2026-05-05 01:30 | 33.14201 | -89.39380 | 30716 ft | 527 kts | 152° |
| 2026-05-05 01:30 | 33.11132 | -89.36984 | 30951 ft | 527 kts | 152° |
| 2026-05-05 01:31 | 33.08060 | -89.34591 | 31200 ft | 528 kts | 152° |
| 2026-05-05 01:31 | 33.04981 | -89.32202 | 31376 ft | 530 kts | 152° |
| 2026-05-05 01:31 | 33.01878 | -89.29795 | 31491 ft | 533 kts | 152° |
| 2026-05-05 01:31 | 32.98763 | -89.27372 | 31661 ft | 536 kts | 152° |
| 2026-05-05 01:32 | 32.95639 | -89.24938 | 31826 ft | 539 kts | 152° |
| 2026-05-05 01:32 | 32.92495 | -89.22492 | 32005 ft | 541 kts | 152° |
| 2026-05-05 01:32 | 32.89336 | -89.20039 | 32174 ft | 544 kts | 152° |
| 2026-05-05 01:32 | 32.86158 | -89.17574 | 32295 ft | 546 kts | 152° |
| 2026-05-05 01:33 | 32.82965 | -89.15103 | 32448 ft | 549 kts | 152° |
| 2026-05-05 01:33 | 32.79757 | -89.12627 | 32593 ft | 551 kts | 152° |
| 2026-05-05 01:33 | 32.76532 | -89.10141 | 32752 ft | 554 kts | 152° |